Time;durP1;ratioP1;P1;durP2;ratioP2;P2;SDS_P1;SDS_P2;PMS_P1;PMS_P2;Temp;Humidity;BMP_temperature;BMP_pressure;BME280_temperature;BME280_humidity;BME280_pressure;Samples;Min_cycle;Max_cycle;Signal;HPM_P1;HPM_P2
2023/11/14 00:02:37;;;;;;;;;;;;;;;25.49;43.40;93725.19;4863118;29;7239;-59
2023/11/14 00:05:35;;;;;;;;;;;;;;;25.51;43.46;93726.16;4872469;29;7296;-59
2023/11/14 00:08:20;;;;;;;;;;;;;;;25.53;43.95;93720.88;4825515;29;7043;-59
2023/11/14 00:10:49;;;;;;;;;;;;;;;25.52;43.50;93722.13;4823201;29;7225;-59
2023/11/14 00:13:48;;;;;;;;;;;;;;;25.55;43.92;93731.34;4831403;29;9003;-60
2023/11/14 00:16:33;;;;;;;;;;;;;;;25.53;43.79;93718.13;4818680;29;7437;-60
2023/11/14 00:19:26;;;;;;;;;;;;;;;25.54;43.72;93719.59;4835728;29;7016;-60
2023/11/14 00:22:01;;;;;;;;;;;;;;;25.54;43.72;93718.84;4811633;29;8218;-59
2023/11/14 00:24:28;;;;;;;;;;;;;;;25.54;43.37;93719.59;4813169;29;7224;-60
2023/11/14 00:27:05;;;;;;;;;;;;;;;25.55;43.72;93731.34;4836315;29;9703;-60
2023/11/14 00:29:33;;;;;;;;;;;;;;;25.54;43.23;93721.59;4878759;29;7084;-59
2023/11/14 00:32:19;;;;;;;;;;;;;;;25.56;43.95;93741.09;4898047;28;7484;-60
2023/11/14 00:34:56;;;;;;;;;;;;;;;25.53;43.31;93751.16;4952075;28;7351;-60
2023/11/14 00:37:54;;;;;;;;;;;;;;;25.55;44.11;93754.13;4972793;28;9598;-60
2023/11/14 00:40:31;;;;;;;;;;;;;;;25.54;43.38;93769.16;4883368;29;9048;-59
2023/11/14 00:43:08;;;;;;;;;;;;;;;25.56;43.35;93772.13;4894615;29;7203;-60
2023/11/14 00:45:48;;;;;;;;;;;;;;;25.55;43.77;93762.38;4949398;28;7013;-60
2023/11/14 00:48:14;;;;;;;;;;;;;;;25.54;43.44;93763.66;4931451;28;7798;-60
2023/11/14 00:50:41;;;;;;;;;;;;;;;25.54;43.64;93762.91;4944749;28;9149;-60
2023/11/14 00:53:07;;;;;;;;;;;;;;;25.49;44.03;93767.22;4934945;28;7062;-60
2023/11/14 00:55:38;;;;;;;;;;;;;;;25.54;43.26;93774.66;4932984;28;8534;-60
2023/11/14 00:58:13;;;;;;;;;;;;;;;25.52;43.93;93766.19;4954511;28;7037;-60
2023/11/14 01:01:19;;;;;;;;;;;;;;;25.55;43.22;93767.16;4931113;28;7240;-60
2023/11/14 01:03:46;;;;;;;;;;;;;;;25.48;44.04;93768.50;4879516;29;7062;-59
2023/11/14 01:06:46;;;;;;;;;;;;;;;25.48;43.77;93763.00;4894240;29;7197;-59
2023/11/14 01:09:13;;;;;;;;;;;;;;;25.49;43.99;93767.22;4840232;29;6992;-59
2023/11/14 01:11:39;;;;;;;;;;;;;;;25.48;43.51;93776.00;4836347;29;9071;-59
2023/11/14 01:14:08;;;;;;;;;;;;;;;25.45;43.47;93772.28;4811255;29;7006;-60
2023/11/14 01:16:36;;;;;;;;;;;;;;;25.46;43.59;93757.28;4860113;29;7004;-59
2023/11/14 01:19:05;;;;;;;;;;;;;;;25.50;43.57;93776.22;4905936;29;7165;-59
2023/11/14 01:21:32;;;;;;;;;;;;;;;25.49;43.40;93769.97;4904583;29;7258;-59
2023/11/14 01:24:16;;;;;;;;;;;;;;;25.50;43.57;93763.22;4919680;29;7172;-59
2023/11/14 01:27:40;;;;;;;;;;;;;;;25.43;43.53;93775.59;4913488;29;7595;-59
2023/11/14 01:30:13;;;;;;;;;;;;;;;25.35;44.28;93774.69;4905258;29;7418;-59
2023/11/14 01:32:40;;;;;;;;;;;;;;;25.36;44.50;93780.91;4892583;29;6964;-59
2023/11/14 01:35:13;;;;;;;;;;;;;;;25.35;43.91;93780.19;4968679;28;9434;-59
2023/11/14 01:37:41;;;;;;;;;;;;;;;25.41;43.77;93780.09;4981274;28;7278;-59
2023/11/14 01:40:08;;;;;;;;;;;;;;;25.42;43.54;93768.56;4980420;28;7009;-59
2023/11/14 01:42:34;;;;;;;;;;;;;;;25.41;44.07;93764.31;4985476;28;7520;-59
2023/11/14 01:45:00;;;;;;;;;;;;;;;25.41;43.78;93763.56;5020400;28;7330;-59
2023/11/14 01:47:29;;;;;;;;;;;;;;;25.37;43.87;93768.66;5040386;28;8704;-59
2023/11/14 01:50:07;;;;;;;;;;;;;;;25.40;44.44;93748.34;5015457;28;9226;-59
2023/11/14 01:52:39;;;;;;;;;;;;;;;25.36;43.99;93747.88;5031949;28;7100;-59
2023/11/14 01:55:30;;;;;;;;;;;;;;;25.40;44.30;93753.84;5049396;28;7426;-60
2023/11/14 01:58:06;;;;;;;;;;;;;;;25.38;44.45;93757.09;5026253;28;6987;-59
2023/11/14 02:00:35;;;;;;;;;;;;;;;25.36;43.91;93742.38;5050278;28;6965;-59
2023/11/14 02:03:23;;;;;;;;;;;;;;;25.35;44.61;93741.66;5052591;28;7445;-60
2023/11/14 02:06:01;;;;;;;;;;;;;;;25.33;44.22;93744.19;5038909;28;7062;-59
2023/11/14 02:08:40;;;;;;;;;;;;;;;25.33;43.83;93748.94;5037239;28;7207;-60
2023/11/14 02:11:16;;;;;;;;;;;;;;;25.33;44.31;93740.69;5028838;28;7039;-59
2023/11/14 02:14:08;;;;;;;;;;;;;;;25.32;43.70;93766.72;5035995;28;7333;-55
2023/11/14 02:17:13;;;;;;;;;;;;;;;25.35;44.36;93755.41;5040383;28;6994;-55
2023/11/14 02:19:54;;;;;;;;;;;;;;;25.42;43.96;93756.84;4965295;28;7266;-55
2023/11/14 02:22:32;;;;;;;;;;;;;;;25.46;43.91;93751.78;4965378;28;8577;-55
2023/11/14 02:25:09;;;;;;;;;;;;;;;25.48;44.04;93759.50;4963474;28;7080;-55
2023/11/14 02:27:51;;;;;;;;;;;;;;;25.45;43.61;93761.28;4988961;28;9076;-55
2023/11/14 02:30:29;;;;;;;;;;;;;;;25.49;43.35;93761.72;4990086;28;7009;-55
2023/11/14 02:33:09;;;;;;;;;;;;;;;25.50;44.03;93765.97;4978181;28;7219;-55
2023/11/14 02:36:00;;;;;;;;;;;;;;;25.49;43.56;93750.69;4975667;28;8090;-55
2023/11/14 02:39:02;;;;;;;;;;;;;;;25.47;43.88;93758.75;4946168;28;9101;-55
2023/11/14 02:41:42;;;;;;;;;;;;;;;25.49;43.57;93733.47;4973000;28;9566;-55
2023/11/14 02:44:17;;;;;;;;;;;;;;;25.48;43.11;93724.44;4980032;28;7363;-55
2023/11/14 02:46:46;;;;;;;;;;;;;;;25.51;43.08;93717.91;4984847;28;7240;-55
2023/11/14 02:49:34;;;;;;;;;;;;;;;25.48;43.61;93729.97;4979559;28;7250;-55
2023/11/14 02:52:34;;;;;;;;;;;;;;;25.51;43.66;93728.91;4966748;28;7257;-55
2023/11/14 02:55:52;;;;;;;;;;;;;;;25.51;43.87;93730.94;4922428;28;7208;-55
2023/11/14 02:58:42;;;;;;;;;;;;;;;25.51;43.00;93709.66;4944411;28;7388;-55
2023/11/14 03:01:17;;;;;;;;;;;;;;;25.49;43.09;93711.44;4941662;28;7503;-55
2023/11/14 03:04:22;;;;;;;;;;;;;;;25.52;43.09;93713.13;4952887;28;7129;-55
2023/11/14 03:07:07;;;;;;;;;;;;;;;25.52;43.80;93735.16;4959248;28;7254;-55
2023/11/14 03:09:48;;;;;;;;;;;;;;;25.54;43.59;93746.38;4962508;28;7188;-55
2023/11/14 03:12:49;;;;;;;;;;;;;;;25.55;43.21;93754.13;4950853;28;9226;-55
2023/11/14 03:15:44;;;;;;;;;;;;;;;25.54;43.66;93749.88;4957633;28;7198;-55
2023/11/14 03:18:26;;;;;;;;;;;;;;;25.54;43.38;93763.66;4962161;28;7232;-55
2023/11/14 03:21:03;;;;;;;;;;;;;;;25.51;43.01;93758.47;4963280;28;7257;-55
2023/11/14 03:23:38;;;;;;;;;;;;;;;25.52;43.78;93765.44;4962697;28;7259;-57
2023/11/14 03:26:13;;;;;;;;;;;;;;;25.53;43.79;93786.97;4965461;28;8228;-58
2023/11/14 03:29:12;;;;;;;;;;;;;;;25.50;43.57;93790.00;4960441;28;8720;-58
2023/11/14 03:31:52;;;;;;;;;;;;;;;25.51;43.07;93792.25;4921285;29;7307;-58
2023/11/14 03:34:35;;;;;;;;;;;;;;;25.49;43.03;93789.25;4894392;29;6996;-58
2023/11/14 03:37:34;;;;;;;;;;;;;;;25.51;43.86;93797.75;4922646;29;9073;-58
2023/11/14 03:40:55;;;;;;;;;;;;;;;25.53;43.77;93800.72;4900160;29;7239;-58
2023/11/14 03:43:34;;;;;;;;;;;;;;;25.53;43.15;93816.50;4859471;29;7455;-58
2023/11/14 03:46:01;;;;;;;;;;;;;;;25.55;43.62;93828.47;4851247;29;8841;-58
2023/11/14 03:48:53;;;;;;;;;;;;;;;25.54;43.67;93840.75;4859156;29;6959;-58
2023/11/14 03:51:28;;;;;;;;;;;;;;;25.53;42.93;93866.81;4845222;29;7236;-59
2023/11/14 03:54:20;;;;;;;;;;;;;;;25.55;43.02;93869.78;4857701;29;7477;-58
2023/11/14 03:57:39;;;;;;;;;;;;;;;25.56;43.63;93865.75;4836576;29;6996;-58
2023/11/14 04:01:02;;;;;;;;;;;;;;;25.56;42.75;93862.25;4861705;29;7106;-58
2023/11/14 04:03:38;;;;;;;;;;;;;;;25.55;43.62;93880.81;4843915;29;7236;-58
2023/11/14 04:06:31;;;;;;;;;;;;;;;25.55;43.64;93872.53;4843090;29;7258;-58
2023/11/14 04:09:10;;;;;;;;;;;;;;;25.58;43.18;93884.53;4891532;29;9527;-58
2023/11/14 04:11:55;;;;;;;;;;;;;;;25.58;43.03;93892.78;4893450;29;7009;-58
2023/11/14 04:14:31;;;;;;;;;;;;;;;25.56;42.91;93892.53;4900058;29;8782;-57
2023/11/14 04:16:58;;;;;;;;;;;;;;;25.52;42.97;93889.34;4990974;28;7167;-58
2023/11/14 04:19:26;;;;;;;;;;;;;;;25.49;43.57;93904.91;5035635;28;7480;-58
2023/11/14 04:21:54;;;;;;;;;;;;;;;25.47;44.04;93906.72;5032820;28;9486;-58
2023/11/14 04:24:20;;;;;;;;;;;;;;;25.48;43.11;93908.19;5049169;28;7157;-58
2023/11/14 04:26:47;;;;;;;;;;;;;;;25.48;43.31;93903.41;5043800;28;7210;-57
2023/11/14 04:29:27;;;;;;;;;;;;;;;25.50;43.53;93920.16;5020243;28;9270;-58
2023/11/14 04:32:03;;;;;;;;;;;;;;;25.54;43.27;93942.63;5041131;28;7268;-58
2023/11/14 04:34:31;;;;;;;;;;;;;;;25.54;42.78;93919.84;5036578;28;9090;-58
2023/11/14 04:37:04;;;;;;;;;;;;;;;25.52;43.31;93914.88;5043161;28;6971;-58
2023/11/14 04:40:05;;;;;;;;;;;;;;;25.55;43.64;93915.84;5039669;28;9083;-58
2023/11/14 04:42:51;;;;;;;;;;;;;;;25.54;42.78;93939.13;5036742;28;6998;-58
2023/11/14 04:45:26;;;;;;;;;;;;;;;25.51;42.60;93920.91;5019137;28;7585;-58
2023/11/14 04:48:30;;;;;;;;;;;;;;;25.50;42.78;93936.69;5049823;28;7135;-58
2023/11/14 04:50:57;;;;;;;;;;;;;;;25.46;43.33;93947.25;5025148;28;9465;-58
2023/11/14 04:53:37;;;;;;;;;;;;;;;25.48;43.09;93960.50;5052364;28;8406;-58
2023/11/14 04:56:24;;;;;;;;;;;;;;;25.47;43.53;93987.28;5025944;28;8827;-58
2023/11/14 04:58:50;;;;;;;;;;;;;;;25.51;42.82;93978.75;5036214;28;7150;-58
2023/11/14 05:01:31;;;;;;;;;;;;;;;25.50;43.32;93982.75;5030724;28;9076;-58
2023/11/14 05:04:26;;;;;;;;;;;;;;;25.52;42.74;93993.97;5042639;28;7322;-58
2023/11/14 05:06:58;;;;;;;;;;;;;;;25.50;43.53;94000.03;5028279;28;9245;-58
2023/11/14 05:09:26;;;;;;;;;;;;;;;25.53;42.72;94001.75;5044527;28;7373;-58
2023/11/14 05:11:58;;;;;;;;;;;;;;;25.52;43.25;93999.50;5020933;28;9103;-58
2023/11/14 05:14:24;;;;;;;;;;;;;;;25.51;42.69;94036.56;5039986;28;9193;-58
2023/11/14 05:16:50;;;;;;;;;;;;;;;25.49;43.57;94075.63;5028511;28;7231;-58
2023/11/14 05:19:38;;;;;;;;;;;;;;;25.50;43.38;94079.13;5036218;28;6961;-58
2023/11/14 05:22:06;;;;;;;;;;;;;;;25.53;43.11;94067.84;5050468;28;8309;-58
2023/11/14 05:24:51;;;;;;;;;;;;;;;25.53;43.42;94065.06;5019590;28;7064;-58
2023/11/14 05:27:49;;;;;;;;;;;;;;;25.54;42.49;94065.81;5033636;28;7322;-58
2023/11/14 05:30:23;;;;;;;;;;;;;;;25.47;43.17;94067.13;5034406;28;9086;-58
2023/11/14 05:33:12;;;;;;;;;;;;;;;25.43;43.04;94088.72;5031168;28;7061;-58
2023/11/14 05:35:40;;;;;;;;;;;;;;;25.35;43.17;94082.25;5048541;28;8757;-58
2023/11/14 05:38:14;;;;;;;;;;;;;;;25.31;43.56;94082.56;5044766;28;7243;-58
2023/11/14 05:40:42;;;;;;;;;;;;;;;25.28;43.21;94115.84;5037329;28;7408;-58
2023/11/14 05:43:18;;;;;;;;;;;;;;;25.27;43.55;94100.63;5035825;28;7168;-60
2023/11/14 05:45:45;;;;;;;;;;;;;;;25.30;43.19;94092.06;5021954;28;7398;-59
2023/11/14 05:48:12;;;;;;;;;;;;;;;25.26;43.17;94096.38;5036266;28;7147;-60
2023/11/14 05:50:43;;;;;;;;;;;;;;;25.23;43.04;94081.63;5032111;28;7188;-59
2023/11/14 05:53:12;;;;;;;;;;;;;;;25.21;44.08;94088.91;5028395;28;7323;-60
2023/11/14 05:55:41;;;;;;;;;;;;;;;25.25;43.35;94094.88;5047372;28;7845;-59
2023/11/14 05:58:07;;;;;;;;;;;;;;;25.33;43.43;94101.31;5029647;28;7011;-60
2023/11/14 06:01:01;;;;;;;;;;;;;;;25.40;43.46;94109.00;5032998;28;9107;-59
2023/11/14 06:03:27;;;;;;;;;;;;;;;25.40;43.40;94122.75;4931451;28;7247;-60
2023/11/14 06:05:53;;;;;;;;;;;;;;;25.43;42.82;94128.00;4927080;28;8871;-59
2023/11/14 06:08:23;;;;;;;;;;;;;;;25.43;43.40;94130.00;4947740;28;7258;-60
2023/11/14 06:10:49;;;;;;;;;;;;;;;25.40;43.54;94122.75;4921689;28;7169;-59
2023/11/14 06:13:22;;;;;;;;;;;;;;;25.43;43.60;94125.25;4948863;28;7160;-60
2023/11/14 06:16:09;;;;;;;;;;;;;;;25.44;44.21;94117.75;4924196;28;7169;-59
2023/11/14 06:18:47;;;;;;;;;;;;;;;25.47;43.51;94124.22;4933183;29;7506;-59
2023/11/14 06:21:18;;;;;;;;;;;;;;;25.47;43.72;94133.22;4943817;28;6957;-60
2023/11/14 06:24:02;;;;;;;;;;;;;;;25.53;43.90;94139.44;4939930;28;6980;-59
2023/11/14 06:26:30;;;;;;;;;;;;;;;25.53;43.11;94153.19;4945134;28;9710;-59
2023/11/14 06:29:30;;;;;;;;;;;;;;;25.52;43.07;94157.19;4944780;28;7265;-59
2023/11/14 06:32:06;;;;;;;;;;;;;;;25.54;43.17;94156.69;4933779;28;9410;-59
2023/11/14 06:34:48;;;;;;;;;;;;;;;25.55;42.75;94172.72;4936734;28;7425;-60
2023/11/14 06:37:44;;;;;;;;;;;;;;;25.55;43.34;94192.00;4945105;28;8603;-59
2023/11/14 06:40:17;;;;;;;;;;;;;;;25.51;43.72;94183.25;4913592;28;7230;-59
2023/11/14 06:42:58;;;;;;;;;;;;;;;25.49;43.05;94196.06;4953537;28;9120;-59
2023/11/14 06:45:49;;;;;;;;;;;;;;;25.54;42.92;94198.75;4955380;28;7076;-59
2023/11/14 06:48:31;;;;;;;;;;;;;;;25.55;43.63;94182.97;4934176;28;7459;-59
2023/11/14 06:51:29;;;;;;;;;;;;;;;25.59;42.64;94191.69;4957646;28;9079;-59
2023/11/14 06:54:03;;;;;;;;;;;;;;;25.57;43.37;94192.22;4879056;29;8644;-60
2023/11/14 06:56:30;;;;;;;;;;;;;;;25.56;42.97;94218.25;4893738;29;7715;-60
2023/11/14 06:58:56;;;;;;;;;;;;;;;25.56;42.70;94215.50;4877882;29;10279;-60
2023/11/14 07:01:23;;;;;;;;;;;;;;;25.57;42.70;94219.75;4878282;29;7144;-60
2023/11/14 07:03:50;;;;;;;;;;;;;;;25.57;42.88;94214.25;4876751;29;7234;-60
2023/11/14 07:06:21;;;;;;;;;;;;;;;25.57;42.75;94233.53;4877323;29;7481;-60
2023/11/14 07:09:05;;;;;;;;;;;;;;;25.58;43.06;94237.03;4875795;29;8118;-59
2023/11/14 07:11:47;;;;;;;;;;;;;;;25.56;43.05;94232.00;4863798;29;8002;-60
2023/11/14 07:14:42;;;;;;;;;;;;;;;25.55;42.79;94249.81;4879979;29;7336;-60
2023/11/14 07:17:47;;;;;;;;;;;;;;;25.58;43.53;94245.28;4898197;29;7207;-59
2023/11/14 07:20:48;;;;;;;;;;;;;;;25.56;43.35;94264.31;4914213;29;9201;-59
2023/11/14 07:23:15;;;;;;;;;;;;;;;25.56;43.31;94261.56;4906965;29;7467;-59
2023/11/14 07:25:56;;;;;;;;;;;;;;;25.51;43.15;94274.13;4916883;29;7271;-60
2023/11/14 07:28:58;;;;;;;;;;;;;;;25.55;42.56;94282.88;4917119;29;7606;-60
2023/11/14 07:31:56;;;;;;;;;;;;;;;25.56;42.56;94262.31;4963077;28;7459;-60
2023/11/14 07:34:42;;;;;;;;;;;;;;;25.56;42.86;94269.81;4966900;28;7285;-60
2023/11/14 07:37:40;;;;;;;;;;;;;;;25.55;42.58;94274.59;4966397;28;8730;-60
2023/11/14 07:40:06;;;;;;;;;;;;;;;25.56;43.36;94272.56;4974050;28;7088;-60
2023/11/14 07:43:24;;;;;;;;;;;;;;;25.57;43.29;94288.59;4955132;28;7856;-59
2023/11/14 07:45:50;;;;;;;;;;;;;;;25.56;42.83;94287.09;4922061;29;9006;-59
2023/11/14 07:48:16;;;;;;;;;;;;;;;25.57;42.54;94279.59;4928685;29;7195;-59
2023/11/14 07:50:42;;;;;;;;;;;;;;;25.52;42.52;94266.59;4919709;29;7140;-59
2023/11/14 07:53:10;;;;;;;;;;;;;;;25.55;42.92;94266.34;4913017;29;7209;-60
2023/11/14 07:55:38;;;;;;;;;;;;;;;25.56;43.06;94262.31;4928883;29;6987;-59
2023/11/14 07:58:04;;;;;;;;;;;;;;;25.55;42.96;94244.31;4919624;29;7473;-59
2023/11/14 08:00:43;;;;;;;;;;;;;;;25.55;42.59;94262.84;4934982;29;8741;-59
2023/11/14 08:03:35;;;;;;;;;;;;;;;25.58;43.44;94262.53;4928617;29;7097;-59
2023/11/14 08:06:10;;;;;;;;;;;;;;;25.56;43.49;94251.28;4919581;29;7022;-59
2023/11/14 08:09:28;;;;;;;;;;;;;;;25.56;43.52;94264.31;4932333;29;7228;-59
2023/11/14 08:12:27;;;;;;;;;;;;;;;25.52;43.28;94250.84;4934790;29;8966;-60
2023/11/14 08:15:39;;;;;;;;;;;;;;;25.54;43.78;94239.28;4871990;29;7212;-60
2023/11/14 08:18:16;;;;;;;;;;;;;;;25.53;43.30;94224.06;4882070;29;7229;-59
2023/11/14 08:21:23;;;;;;;;;;;;;;;25.56;43.83;94221.00;4870680;29;7312;-60
2023/11/14 08:24:07;;;;;;;;;;;;;;;25.54;43.45;94198.75;4864760;29;7282;-59
2023/11/14 08:26:53;;;;;;;;;;;;;;;25.57;43.37;94205.97;4861398;29;9747;-59
2023/11/14 08:29:36;;;;;;;;;;;;;;;25.58;43.48;94226.00;4861097;29;8084;-59
2023/11/14 08:32:35;;;;;;;;;;;;;;;25.56;43.75;94231.25;4859465;29;7197;-59
2023/11/14 08:35:04;;;;;;;;;;;;;;;25.55;43.26;94227.78;4840144;29;6981;-60
2023/11/14 08:37:31;;;;;;;;;;;;;;;25.56;43.30;94228.50;4837328;29;7461;-60
2023/11/14 08:39:57;;;;;;;;;;;;;;;25.56;42.98;94200.97;4839254;29;7048;-60
2023/11/14 08:42:24;;;;;;;;;;;;;;;25.56;43.33;94223.75;4830015;29;9284;-60
2023/11/14 08:44:53;;;;;;;;;;;;;;;25.55;43.53;94222.28;4838204;29;7240;-60
2023/11/14 08:47:36;;;;;;;;;;;;;;;25.52;42.90;94204.03;4839179;29;7021;-59
2023/11/14 08:50:04;;;;;;;;;;;;;;;25.56;42.98;94201.72;4840079;29;8780;-60
2023/11/14 08:52:34;;;;;;;;;;;;;;;25.53;43.25;94200.03;4839010;29;7372;-60
2023/11/14 08:55:09;;;;;;;;;;;;;;;25.56;43.55;94189.94;4921864;28;8714;-59
2023/11/14 08:57:54;;;;;;;;;;;;;;;25.57;42.98;94200.47;4973014;28;7409;-59
2023/11/14 09:00:36;;;;;;;;;;;;;;;25.58;43.51;94199.19;4965492;28;7296;-60
2023/11/14 09:03:22;;;;;;;;;;;;;;;25.55;43.26;94197.50;4971044;28;6979;-60
2023/11/14 09:05:59;;;;;;;;;;;;;;;25.59;42.99;94186.19;4971746;28;6995;-60
2023/11/14 09:08:36;;;;;;;;;;;;;;;25.55;43.16;94155.44;4972149;28;8241;-59
2023/11/14 09:11:07;;;;;;;;;;;;;;;25.55;43.08;94144.41;5011906;28;7221;-60
2023/11/14 09:13:45;;;;;;;;;;;;;;;25.56;43.06;94160.41;5038308;28;7270;-60
2023/11/14 09:16:31;;;;;;;;;;;;;;;25.56;43.14;94152.16;5046854;28;9153;-59
2023/11/14 09:19:42;;;;;;;;;;;;;;;25.54;43.80;94135.41;5041961;28;9183;-59
2023/11/14 09:22:28;;;;;;;;;;;;;;;25.56;43.04;94152.16;4972603;28;9148;-60
2023/11/14 09:25:32;;;;;;;;;;;;;;;25.58;42.97;94163.41;4970009;28;9076;-60
2023/11/14 09:28:08;;;;;;;;;;;;;;;25.55;42.91;94161.69;4975770;28;6968;-60
2023/11/14 09:30:34;;;;;;;;;;;;;;;25.55;42.99;94150.69;4958782;28;7429;-60
2023/11/14 09:33:10;;;;;;;;;;;;;;;25.56;43.33;94152.16;4976545;28;6986;-60
2023/11/14 09:36:10;;;;;;;;;;;;;;;25.56;43.52;94140.38;4971668;28;6977;-60
2023/11/14 09:38:51;;;;;;;;;;;;;;;25.57;43.82;94145.41;4933162;29;7267;-60
2023/11/14 09:45:24;;;;;;;;;;;;;;;25.56;43.53;94149.41;4914036;29;8748;-60
2023/11/14 09:48:16;;;;;;;;;;;;;;;25.56;43.81;94135.63;4907645;29;7070;-60
2023/11/14 09:50:43;;;;;;;;;;;;;;;25.56;43.96;94140.38;4896072;29;7241;-60
2023/11/14 09:53:44;;;;;;;;;;;;;;;25.56;43.75;94119.09;4914273;29;7173;-60
2023/11/14 09:56:14;;;;;;;;;;;;;;;25.57;43.22;94120.59;4830233;29;9161;-59
2023/11/14 09:58:41;;;;;;;;;;;;;;;25.59;43.13;94150.38;4825350;29;7241;-59
2023/11/14 10:01:46;;;;;;;;;;;;;;;25.60;43.90;94141.59;4815841;29;7010;-60
2023/11/14 10:04:32;;;;;;;;;;;;;;;25.58;43.69;94135.84;4833337;29;9202;-60
2023/11/14 10:10:32;;;;;;;;;;;;;;;25.55;43.93;94105.84;4812213;29;9101;-59
2023/11/14 10:13:21;;;;;;;;;;;;;;;25.57;43.87;94109.59;4802365;29;8412;-59
2023/11/14 10:15:47;;;;;;;;;;;;;;;25.57;43.74;94109.59;4869348;29;7235;-60
2023/11/14 10:18:29;;;;;;;;;;;;;;;25.59;43.21;94101.56;4857333;29;7179;-60
2023/11/14 10:21:01;;;;;;;;;;;;;;;25.58;43.65;94105.56;4887582;29;9453;-60
2023/11/14 10:24:23;;;;;;;;;;;;;;;25.59;42.76;94098.81;4934972;29;7807;-59
2023/11/14 10:27:24;;;;;;;;;;;;;;;25.56;42.83;94101.81;4896112;29;7063;-59
2023/11/14 10:30:24;;;;;;;;;;;;;;;25.56;43.73;94113.59;4900906;29;7085;-60
2023/11/14 10:33:03;;;;;;;;;;;;;;;25.56;43.47;94108.09;4961769;28;7234;-59
2023/11/14 10:35:29;;;;;;;;;;;;;;;25.58;43.37;94116.56;4957110;28;6996;-59
2023/11/14 10:37:56;;;;;;;;;;;;;;;25.60;43.20;94091.28;4965987;28;9167;-59
2023/11/14 10:40:22;;;;;;;;;;;;;;;25.60;42.86;94102.31;4981913;28;9107;-59
2023/11/14 10:43:12;;;;;;;;;;;;;;;25.58;42.94;94127.59;4976540;28;6990;-60
2023/11/14 10:45:45;;;;;;;;;;;;;;;25.54;43.09;94120.88;4966100;28;9292;-60
2023/11/14 10:48:46;;;;;;;;;;;;;;;25.55;43.58;94100.34;4960029;28;7284;-59
2023/11/14 10:51:22;;;;;;;;;;;;;;;25.54;43.51;94093.34;4880667;29;7624;-59
2023/11/14 10:54:07;;;;;;;;;;;;;;;25.55;42.95;94094.84;4864276;29;8725;-59
2023/11/14 10:56:37;;;;;;;;;;;;;;;25.57;43.58;94087.56;4879134;29;9455;-59
2023/11/14 10:59:20;;;;;;;;;;;;;;;25.59;42.60;94062.25;4863902;29;9012;-59
2023/11/14 11:01:59;;;;;;;;;;;;;;;25.58;42.46;94050.47;4930279;28;7279;-59
2023/11/14 11:04:26;;;;;;;;;;;;;;;25.59;42.84;94049.22;4924944;28;7042;-60
2023/11/14 11:06:54;;;;;;;;;;;;;;;25.59;42.17;94046.47;4943622;28;7104;-60
2023/11/14 11:09:32;;;;;;;;;;;;;;;25.59;42.91;94062.25;4934288;28;7329;-60
2023/11/14 11:12:01;;;;;;;;;;;;;;;25.59;42.61;94051.22;4939368;28;7041;-59
2023/11/14 11:14:27;;;;;;;;;;;;;;;25.59;42.21;94048.47;4953070;28;8742;-59
2023/11/14 11:16:54;;;;;;;;;;;;;;;25.61;42.22;94051.47;4939361;28;7508;-59
2023/11/14 11:19:28;;;;;;;;;;;;;;;25.59;41.96;94045.72;4943961;28;7263;-59
2023/11/14 11:22:48;;;;;;;;;;;;;;;25.62;42.68;94045.41;4947003;28;7276;-59
2023/11/14 11:25:26;;;;;;;;;;;;;;;25.61;42.62;94027.41;4989518;28;7268;-60
2023/11/14 11:28:20;;;;;;;;;;;;;;;25.59;42.39;94018.94;5037621;28;9212;-59
2023/11/14 11:31:14;;;;;;;;;;;;;;;25.58;42.29;94022.22;5034997;28;9134;-60
2023/11/14 11:33:59;;;;;;;;;;;;;;;25.58;43.18;94036.00;5029171;28;7227;-56
2023/11/14 11:36:35;;;;;;;;;;;;;;;25.54;42.79;94044.53;5035406;28;7044;-56
2023/11/14 11:39:50;;;;;;;;;;;;;;;25.57;43.04;94048.25;5029164;28;8870;-56
2023/11/14 11:42:30;;;;;;;;;;;;;;;25.58;42.84;94050.47;5013748;28;8721;-56
2023/11/14 11:45:31;;;;;;;;;;;;;;;25.59;42.62;94042.97;5032020;28;8772;-56
2023/11/14 11:51:37;;;;;;;;;;;;;;;25.59;43.25;94027.19;5032559;28;9021;-56
2023/11/14 11:54:27;;;;;;;;;;;;;;;25.61;43.06;93996.38;5032496;28;7459;-56
2023/11/14 11:57:31;;;;;;;;;;;;;;;25.61;42.70;93955.81;5028102;28;8930;-56
2023/11/14 12:00:10;;;;;;;;;;;;;;;25.58;42.38;93912.78;5015752;28;7219;-56
2023/11/14 12:03:12;;;;;;;;;;;;;;;25.54;43.32;93893.06;5014712;28;9253;-56
2023/11/14 12:06:02;;;;;;;;;;;;;;;25.56;42.88;93895.28;5029944;28;7877;-56
2023/11/14 12:08:31;;;;;;;;;;;;;;;25.57;42.71;93874.75;5032626;28;9108;-56
2023/11/14 12:10:58;;;;;;;;;;;;;;;25.55;42.97;93867.03;5030994;28;9310;-55
2023/11/14 12:13:27;;;;;;;;;;;;;;;25.55;43.02;93864.28;5028058;28;7127;-56
2023/11/14 12:16:42;;;;;;;;;;;;;;;25.59;43.61;93878.47;5028390;28;8398;-56
2023/11/14 12:19:47;;;;;;;;;;;;;;;25.59;43.65;93886.75;5032893;28;9225;-56
2023/11/14 12:22:21;;;;;;;;;;;;;;;25.58;43.00;93879.75;5029893;28;7228;-56
2023/11/14 12:24:50;;;;;;;;;;;;;;;25.59;42.84;93897.00;5040828;28;7065;-56
2023/11/14 12:27:25;;;;;;;;;;;;;;;25.59;42.91;93908.03;5040836;28;7083;-55
2023/11/14 12:30:24;;;;;;;;;;;;;;;25.64;42.59;93932.75;5048887;28;7154;-56
2023/11/14 12:33:16;;;;;;;;;;;;;;;25.63;43.01;93952.53;5045189;28;9054;-55
2023/11/14 12:35:58;;;;;;;;;;;;;;;25.62;42.78;93945.56;5031922;28;9097;-55
2023/11/14 12:38:56;;;;;;;;;;;;;;;25.61;42.90;93947.56;5037222;28;7406;-56
2023/11/14 12:41:35;;;;;;;;;;;;;;;25.62;43.15;93949.03;4984558;28;7136;-56
2023/11/14 12:44:34;;;;;;;;;;;;;;;25.64;43.15;93965.06;4985367;28;7242;-62
2023/11/14 12:47:02;;;;;;;;;;;;;;;25.63;43.11;93947.03;5015492;28;9228;-61
2023/11/14 12:50:22;;;;;;;;;;;;;;;25.64;42.49;93954.78;4986281;28;7175;-62
2023/11/14 12:53:10;;;;;;;;;;;;;;;25.58;42.57;93956.84;4943155;28;8726;-63
2023/11/14 12:56:07;;;;;;;;;;;;;;;25.59;42.89;93952.09;4943713;28;7401;-62
2023/11/14 12:58:35;;;;;;;;;;;;;;;25.58;42.71;93956.84;4892151;29;9114;-62
2023/11/14 13:01:03;;;;;;;;;;;;;;;25.57;42.71;93947.13;4890501;29;9254;-62
2023/11/14 13:03:31;;;;;;;;;;;;;;;25.60;42.29;93959.81;4888935;29;7240;-62
2023/11/14 13:06:22;;;;;;;;;;;;;;;25.60;42.01;93950.84;4895774;29;7270;-61
2023/11/14 13:09:19;;;;;;;;;;;;;;;25.59;41.95;93950.09;4896250;29;7079;-62
2023/11/14 13:11:45;;;;;;;;;;;;;;;25.59;41.91;93933.56;4896547;29;7232;-61
2023/11/14 13:14:26;;;;;;;;;;;;;;;25.57;41.68;93938.84;4894697;29;7241;-62
2023/11/14 13:16:53;;;;;;;;;;;;;;;25.55;41.87;93933.13;4890129;29;9363;-62
2023/11/14 13:19:29;;;;;;;;;;;;;;;25.57;42.09;93927.84;4896315;29;7260;-62
2023/11/14 13:22:15;;;;;;;;;;;;;;;25.58;41.87;93918.28;4913450;29;6997;-62
2023/11/14 13:25:00;;;;;;;;;;;;;;;25.58;42.61;93896.25;4914452;29;7274;-62
2023/11/14 13:27:41;;;;;;;;;;;;;;;25.57;42.43;93897.53;4953960;28;8215;-62
2023/11/14 13:30:30;;;;;;;;;;;;;;;25.58;42.11;93896.25;4961358;28;9086;-63
2023/11/14 13:36:49;;;;;;;;;;;;;;;25.59;42.96;93878.47;4957578;28;6991;-63
2023/11/14 13:39:50;;;;;;;;;;;;;;;25.60;42.47;93852.41;4932681;28;7616;-62
2023/11/14 13:42:18;;;;;;;;;;;;;;;25.60;42.67;93846.19;4887071;29;8762;-63
2023/11/14 13:45:39;;;;;;;;;;;;;;;25.61;42.17;93856.66;4883475;29;7331;-64
2023/11/14 13:48:08;;;;;;;;;;;;;;;25.60;42.60;93829.66;4840774;29;9084;-63
2023/11/14 13:50:53;;;;;;;;;;;;;;;25.61;41.86;93829.13;4843204;29;7364;-62
2023/11/14 13:53:22;;;;;;;;;;;;;;;25.64;42.46;93824.59;4837573;29;8733;-62
2023/11/14 13:55:55;;;;;;;;;;;;;;;25.63;41.93;93803.81;4839054;29;7624;-63
2023/11/14 13:58:22;;;;;;;;;;;;;;;25.62;42.10;93797.56;4827336;29;8753;-62
2023/11/14 14:00:56;;;;;;;;;;;;;;;25.60;42.72;93785.59;4843991;29;7242;-62
2023/11/14 14:03:52;;;;;;;;;;;;;;;25.61;42.69;93800.84;4844002;29;7524;-62
2023/11/14 14:06:33;;;;;;;;;;;;;;;25.60;42.92;93805.59;4808517;29;8743;-62
2023/11/14 14:09:13;;;;;;;;;;;;;;;25.58;42.33;93821.91;4809269;29;7708;-62
2023/11/14 14:11:44;;;;;;;;;;;;;;;25.59;42.64;93820.66;4844680;29;9084;-62
2023/11/14 14:14:30;;;;;;;;;;;;;;;25.58;42.56;93810.91;4863954;29;7081;-62
2023/11/14 14:16:59;;;;;;;;;;;;;;;25.61;43.09;93815.34;4888562;29;7259;-62
2023/11/14 14:19:36;;;;;;;;;;;;;;;25.59;42.32;93806.88;4892330;29;7592;-62
2023/11/14 14:22:06;;;;;;;;;;;;;;;25.58;43.14;93819.16;4913753;29;8894;-62
2023/11/14 14:24:46;;;;;;;;;;;;;;;25.60;43.13;93810.38;4935161;29;7298;-62
2023/11/14 14:27:17;;;;;;;;;;;;;;;25.61;42.63;93834.63;4957333;28;7530;-62